Time;durP1;ratioP1;P1;durP2;ratioP2;P2;SDS_P1;SDS_P2;PMS_P1;PMS_P2;Temp;Humidity;BMP_temperature;BMP_pressure;BME280_temperature;BME280_humidity;BME280_pressure;Samples;Min_cycle;Max_cycle;Signal;HPM_P1;HPM_P2
2022/09/17 00:00:20;;;;;;;0.88;0.65;;;12.40;42.80;;;;;;5045097;28;20028;-74
2022/09/17 00:02:51;;;;;;;0.77;0.40;;;12.40;43.00;;;;;;5057111;28;20037;-73
2022/09/17 00:05:17;;;;;;;0.38;0.30;;;12.40;43.10;;;;;;5048374;28;20094;-73
2022/09/17 00:07:44;;;;;;;0.77;0.35;;;12.30;43.00;;;;;;5048456;28;20032;-74
2022/09/17 00:10:10;;;;;;;0.35;0.30;;;12.30;43.10;;;;;;5063502;28;20104;-74
2022/09/17 00:12:35;;;;;;;2.05;0.38;;;12.20;43.00;;;;;;5041337;28;20279;-73
2022/09/17 00:15:01;;;;;;;2.40;0.40;;;12.20;43.10;;;;;;5041715;28;20416;-74
2022/09/17 00:17:27;;;;;;;1.58;0.45;;;12.10;43.60;;;;;;5040583;28;20331;-74
2022/09/17 00:19:53;;;;;;;0.32;0.30;;;12.10;43.10;;;;;;5048401;28;20128;-73
2022/09/17 00:22:19;;;;;;;0.80;0.40;;;12.10;43.30;;;;;;5048778;28;20462;-73
2022/09/17 00:24:45;;;;;;;1.35;0.57;;;12.10;43.30;;;;;;5055590;28;20532;-72
2022/09/17 00:27:11;;;;;;;1.38;0.55;;;12.00;43.20;;;;;;5061787;28;20379;-74
2022/09/17 00:29:37;;;;;;;1.92;0.40;;;12.00;43.40;;;;;;5047641;28;20040;-73
2022/09/17 00:32:03;;;;;;;0.40;0.35;;;11.90;43.30;;;;;;5048379;28;20033;-73
2022/09/17 00:34:29;;;;;;;1.48;0.55;;;11.90;43.40;;;;;;5010263;28;20052;-74
2022/09/17 00:36:54;;;;;;;0.30;0.30;;;11.90;43.50;;;;;;5034434;28;20057;-74
2022/09/17 00:39:20;;;;;;;1.20;0.40;;;11.80;43.50;;;;;;5033185;28;20049;-73
2022/09/17 00:41:46;;;;;;;0.50;0.50;;;11.80;43.50;;;;;;5048933;28;20021;-74
2022/09/17 00:44:40;;;;;;;1.08;0.90;;;11.70;43.50;;;;;;5045481;28;20033;-73
2022/09/17 00:47:33;;;;;;;1.05;0.30;;;11.60;43.50;;;;;;5047062;28;20033;-73
2022/09/17 00:50:11;;;;;;;0.43;0.30;;;11.60;43.60;;;;;;5038260;28;20060;-73
2022/09/17 00:52:43;;;;;;;0.35;0.35;;;11.50;43.50;;;;;;5048384;28;20517;-73
2022/09/17 00:55:16;;;;;;;1.45;0.45;;;11.50;43.50;;;;;;5049154;28;20037;-74
2022/09/17 00:57:44;;;;;;;0.38;0.30;;;11.40;43.50;;;;;;5034285;28;20025;-73
2022/09/17 01:00:14;;;;;;;1.92;0.63;;;11.40;43.50;;;;;;5044683;28;20480;-73
2022/09/17 01:02:41;;;;;;;0.90;0.40;;;11.40;43.70;;;;;;5047854;28;20033;-73
2022/09/17 01:05:09;;;;;;;0.88;0.70;;;11.30;43.60;;;;;;5039805;28;20035;-74
2022/09/17 01:07:44;;;;;;;1.02;0.30;;;11.30;43.70;;;;;;5046850;28;20025;-74
2022/09/17 01:10:38;;;;;;;0.40;0.30;;;11.20;43.70;;;;;;5045573;28;20047;-74
2022/09/17 01:13:16;;;;;;;0.50;0.40;;;11.20;43.90;;;;;;5048453;28;20377;-73
2022/09/17 01:15:54;;;;;;;1.30;0.80;;;11.10;43.80;;;;;;5048241;28;20074;-73
2022/09/17 01:18:25;;;;;;;1.05;0.50;;;11.10;43.80;;;;;;5052734;28;20037;-73
2022/09/17 01:21:26;;;;;;;0.57;0.30;;;11.10;43.90;;;;;;5041350;28;20033;-73
2022/09/17 01:24:11;;;;;;;0.85;0.40;;;11.00;43.80;;;;;;5036544;28;20057;-74
2022/09/17 01:26:59;;;;;;;1.30;0.50;;;11.00;44.00;;;;;;5036323;28;20033;-74
2022/09/17 01:30:03;;;;;;;0.98;0.50;;;11.00;44.00;;;;;;5043621;28;20033;-73
2022/09/17 01:32:38;;;;;;;0.60;0.50;;;10.90;43.90;;;;;;5058200;28;20041;-73
2022/09/17 01:35:14;;;;;;;1.65;0.40;;;10.90;43.90;;;;;;5038532;28;20028;-74
2022/09/17 01:37:43;;;;;;;0.88;0.50;;;10.90;44.00;;;;;;5041070;28;20029;-73
2022/09/17 01:40:24;;;;;;;1.48;0.50;;;10.80;43.90;;;;;;5047092;28;20043;-74
2022/09/17 01:43:00;;;;;;;1.80;0.50;;;10.80;44.00;;;;;;5036140;28;20446;-74
2022/09/17 01:45:36;;;;;;;1.42;0.52;;;10.80;44.20;;;;;;5030944;28;20035;-74
2022/09/17 01:48:16;;;;;;;1.50;0.73;;;10.70;44.10;;;;;;5049747;28;20052;-73
2022/09/17 01:50:50;;;;;;;2.92;0.75;;;10.70;44.20;;;;;;5042715;28;20110;-73
2022/09/17 01:53:20;;;;;;;1.65;0.70;;;10.60;44.10;;;;;;5033897;28;20114;-73
2022/09/17 01:55:49;;;;;;;1.40;0.80;;;10.60;44.20;;;;;;5038300;28;20025;-73
2022/09/17 01:58:30;;;;;;;1.38;0.80;;;10.60;44.30;;;;;;5050010;28;20058;-73
2022/09/17 02:01:05;;;;;;;4.78;1.65;;;10.50;44.20;;;;;;5050785;28;20267;-74
2022/09/17 02:03:38;;;;;;;2.10;1.20;;;10.50;44.30;;;;;;5054900;28;20037;-75
2022/09/17 02:06:17;;;;;;;4.38;1.27;;;10.50;44.40;;;;;;5040924;28;20462;-72
2022/09/17 02:08:52;;;;;;;2.42;0.88;;;10.40;44.30;;;;;;5050918;28;20033;-74
2022/09/17 02:11:19;;;;;;;1.88;1.23;;;10.40;44.40;;;;;;5043561;28;20598;-73
2022/09/17 02:13:58;;;;;;;1.95;1.33;;;10.30;44.20;;;;;;5033003;28;20040;-73
2022/09/17 02:16:29;;;;;;;3.88;1.50;;;10.30;44.40;;;;;;5050792;28;20442;-72
2022/09/17 02:19:16;;;;;;;2.72;1.33;;;10.30;44.40;;;;;;5046311;28;20082;-74
2022/09/17 02:22:00;;;;;;;1.75;1.00;;;10.30;44.60;;;;;;5050245;28;20047;-73
2022/09/17 02:24:48;;;;;;;1.48;1.17;;;10.20;44.50;;;;;;5051118;28;20032;-72
2022/09/17 02:27:33;;;;;;;1.92;1.15;;;10.20;44.50;;;;;;5051204;28;20033;-73
2022/09/17 02:30:03;;;;;;;3.25;1.35;;;10.10;44.30;;;;;;5040915;28;20044;-73
2022/09/17 02:32:31;;;;;;;0.98;0.88;;;10.10;44.40;;;;;;5052119;28;20082;-73
2022/09/17 02:34:57;;;;;;;2.20;1.23;;;10.10;44.50;;;;;;5051069;28;20029;-73
2022/09/17 02:37:23;;;;;;;1.55;1.02;;;10.10;44.60;;;;;;5050251;28;20036;-73
2022/09/17 02:39:49;;;;;;;2.75;0.90;;;10.00;44.50;;;;;;5049575;28;20025;-73
2022/09/17 02:42:25;;;;;;;1.35;1.10;;;10.00;44.60;;;;;;5051940;28;20045;-73
2022/09/17 02:45:18;;;;;;;2.30;1.10;;;9.90;44.60;;;;;;5050970;28;20562;-73
2022/09/17 02:48:02;;;;;;;2.03;1.20;;;9.90;44.70;;;;;;5034984;28;20033;-74
2022/09/17 02:50:43;;;;;;;2.25;1.13;;;9.80;44.60;;;;;;5044653;28;20044;-72
2022/09/17 02:53:31;;;;;;;2.63;0.95;;;9.80;44.60;;;;;;5032377;28;20048;-74
2022/09/17 02:56:22;;;;;;;2.22;1.10;;;9.80;44.80;;;;;;5038898;28;20067;-75
2022/09/17 02:59:27;;;;;;;1.73;0.82;;;9.70;44.70;;;;;;5040383;28;20333;-73
2022/09/17 03:02:01;;;;;;;3.15;0.93;;;9.70;44.80;;;;;;5052510;28;20117;-73
2022/09/17 03:04:29;;;;;;;1.95;1.08;;;9.70;44.80;;;;;;5043437;28;20037;-74
2022/09/17 03:06:57;;;;;;;1.27;0.93;;;9.60;44.70;;;;;;5051492;28;20106;-73
2022/09/17 03:09:23;;;;;;;1.88;0.85;;;9.60;44.70;;;;;;5042163;28;20481;-74
2022/09/17 03:11:49;;;;;;;1.00;0.70;;;9.60;44.80;;;;;;5044839;28;20041;-73
2022/09/17 03:14:15;;;;;;;1.30;0.68;;;9.60;44.90;;;;;;5052342;28;20396;-73
2022/09/17 03:16:41;;;;;;;1.73;0.82;;;9.50;44.80;;;;;;5055469;28;20035;-73
2022/09/17 03:19:07;;;;;;;1.02;0.73;;;9.50;44.90;;;;;;5051107;28;20112;-73
2022/09/17 03:21:33;;;;;;;1.25;0.80;;;9.50;45.00;;;;;;5052497;28;20029;-72
2022/09/17 03:24:00;;;;;;;1.35;0.90;;;9.50;45.00;;;;;;5037351;28;20025;-73
2022/09/17 03:26:26;;;;;;;1.02;0.80;;;9.50;45.10;;;;;;5048730;28;20094;-73
2022/09/17 03:28:53;;;;;;;3.83;1.08;;;9.40;45.00;;;;;;5033325;28;20081;-72
2022/09/17 03:31:19;;;;;;;2.38;1.10;;;9.40;45.00;;;;;;5046274;28;20073;-73
2022/09/17 03:33:45;;;;;;;2.78;1.00;;;9.40;45.10;;;;;;5051022;28;20047;-73
2022/09/17 03:36:11;;;;;;;1.23;1.05;;;9.40;45.20;;;;;;5048476;28;20075;-73
2022/09/17 03:38:37;;;;;;;2.25;1.10;;;9.30;45.10;;;;;;5048865;28;20609;-74
2022/09/17 03:41:08;;;;;;;1.50;1.10;;;9.30;45.20;;;;;;5052319;28;20372;-72
2022/09/17 03:43:34;;;;;;;2.75;1.05;;;9.30;45.20;;;;;;5050722;28;20393;-71
2022/09/17 03:46:00;;;;;;;1.98;1.45;;;9.20;45.10;;;;;;5054282;28;20029;-73
2022/09/17 03:48:26;;;;;;;1.88;1.27;;;9.20;45.20;;;;;;5044088;28;20059;-72
2022/09/17 03:50:52;;;;;;;5.63;1.38;;;9.20;45.30;;;;;;5052156;28;20049;-73
2022/09/17 03:53:18;;;;;;;3.13;1.48;;;9.10;45.20;;;;;;5053060;28;20059;-72
2022/09/17 03:55:44;;;;;;;2.58;1.33;;;9.10;45.30;;;;;;5016055;28;20033;-72
2022/09/17 03:58:10;;;;;;;2.67;1.20;;;9.10;45.30;;;;;;5046865;28;20081;-73
2022/09/17 04:00:36;;;;;;;2.08;1.40;;;9.10;45.30;;;;;;5052881;28;20050;-74
2022/09/17 04:03:06;;;;;;;2.15;1.27;;;9.10;45.40;;;;;;5058030;28;20084;-72
2022/09/17 04:05:32;;;;;;;1.80;1.10;;;9.00;45.30;;;;;;5051850;28;20029;-73
2022/09/17 04:07:57;;;;;;;3.80;2.15;;;9.00;45.40;;;;;;5040773;28;20057;-74
2022/09/17 04:10:24;;;;;;;2.47;1.52;;;9.00;45.40;;;;;;5052496;28;20027;-73
2022/09/17 04:12:50;;;;;;;5.75;2.28;;;8.90;45.30;;;;;;5053317;28;20523;-73
2022/09/17 04:15:16;;;;;;;4.15;2.33;;;8.90;45.40;;;;;;5045430;28;20029;-74
2022/09/17 04:17:42;;;;;;;3.15;1.80;;;8.90;45.50;;;;;;5048008;28;20029;-73
2022/09/17 04:20:09;;;;;;;2.50;1.45;;;8.90;45.50;;;;;;5052633;28;20024;-73
2022/09/17 04:22:35;;;;;;;3.17;2.28;;;8.80;45.40;;;;;;5047622;28;20037;-73
2022/09/17 04:25:01;;;;;;;2.55;1.85;;;8.80;45.50;;;;;;5052597;28;20913;-73
2022/09/17 04:27:27;;;;;;;2.50;1.92;;;8.80;45.50;;;;;;5051709;28;20041;-73
2022/09/17 04:29:52;;;;;;;2.75;1.67;;;8.80;45.60;;;;;;5035918;28;20045;-74
2022/09/17 04:32:19;;;;;;;4.72;2.50;;;8.80;45.70;;;;;;5052678;28;20040;-74
2022/09/17 04:34:45;;;;;;;2.15;1.80;;;8.70;45.50;;;;;;5046434;28;20412;-73
2022/09/17 04:37:11;;;;;;;2.90;1.90;;;8.70;45.60;;;;;;5052218;28;20021;-72
2022/09/17 04:39:37;;;;;;;2.33;1.92;;;8.70;45.70;;;;;;5051398;28;20095;-73
2022/09/17 04:42:03;;;;;;;2.72;1.75;;;8.70;45.70;;;;;;5051314;28;20033;-73
2022/09/17 04:44:29;;;;;;;2.83;1.65;;;8.70;45.80;;;;;;5041549;28;20377;-73
2022/09/17 04:46:55;;;;;;;1.83;1.40;;;8.60;45.70;;;;;;5051496;28;20029;-73
2022/09/17 04:49:21;;;;;;;2.30;1.80;;;8.60;45.70;;;;;;5042959;28;20049;-73
2022/09/17 04:51:48;;;;;;;4.15;1.90;;;8.60;45.80;;;;;;5041216;28;20051;-73
2022/09/17 04:54:14;;;;;;;2.33;1.67;;;8.60;45.80;;;;;;5046478;28;20443;-71
2022/09/17 04:56:39;;;;;;;2.45;1.50;;;8.60;45.90;;;;;;5043289;28;20043;-73
2022/09/17 04:59:05;;;;;;;2.50;1.67;;;8.50;45.80;;;;;;5052118;28;20051;-74
2022/09/17 05:01:31;;;;;;;3.30;1.40;;;8.50;45.90;;;;;;5048049;28;20033;-74
2022/09/17 05:03:57;;;;;;;2.13;1.33;;;8.50;46.00;;;;;;5058170;28;20028;-74
2022/09/17 05:06:23;;;;;;;3.65;1.30;;;8.50;46.10;;;;;;5047905;28;20098;-73
2022/09/17 05:08:49;;;;;;;2.38;1.60;;;8.50;46.10;;;;;;5043895;28;20388;-74
2022/09/17 05:11:16;;;;;;;2.67;1.77;;;8.50;46.10;;;;;;5044790;28;20039;-74
2022/09/17 05:13:43;;;;;;;2.58;1.40;;;8.50;46.20;;;;;;5048635;28;20045;-73
2022/09/17 05:16:10;;;;;;;2.25;1.30;;;8.50;46.20;;;;;;5035575;28;20053;-73
2022/09/17 05:18:36;;;;;;;3.95;1.60;;;8.50;46.30;;;;;;5045962;28;20043;-74
2022/09/17 05:21:02;;;;;;;2.03;1.35;;;8.40;46.10;;;;;;5047336;28;20055;-75
2022/09/17 05:23:28;;;;;;;2.35;1.23;;;8.40;46.20;;;;;;5045608;28;20029;-74
2022/09/17 05:25:59;;;;;;;1.63;1.00;;;8.40;46.20;;;;;;5046102;28;20556;-75
2022/09/17 05:28:28;;;;;;;1.52;1.02;;;8.40;46.30;;;;;;5033629;28;20086;-74
2022/09/17 05:30:57;;;;;;;1.23;1.05;;;8.40;46.30;;;;;;5047903;28;20484;-74
2022/09/17 05:33:23;;;;;;;2.80;1.98;;;8.40;46.40;;;;;;5048926;28;20095;-73
2022/09/17 05:35:50;;;;;;;1.77;1.17;;;8.40;46.40;;;;;;5047708;28;20059;-73
2022/09/17 05:38:18;;;;;;;2.10;1.30;;;8.30;46.30;;;;;;5041950;28;20045;-75
2022/09/17 05:40:45;;;;;;;1.67;1.27;;;8.30;46.40;;;;;;5030612;28;20082;-75
2022/09/17 05:43:20;;;;;;;0.85;0.70;;;8.30;46.40;;;;;;5048233;28;20102;-74
2022/09/17 05:45:47;;;;;;;1.33;1.10;;;8.30;46.60;;;;;;5032145;28;20526;-76
2022/09/17 05:48:13;;;;;;;2.97;1.40;;;8.20;46.30;;;;;;5040267;28;20075;-73
2022/09/17 05:50:40;;;;;;;1.88;1.05;;;8.20;46.40;;;;;;5044937;28;20049;-73
2022/09/17 05:53:15;;;;;;;1.88;1.10;;;8.20;46.50;;;;;;5046073;28;20053;-73
2022/09/17 05:55:41;;;;;;;1.42;1.08;;;8.10;46.50;;;;;;5041894;28;20036;-76
2022/09/17 05:58:14;;;;;;;1.98;1.50;;;8.10;46.50;;;;;;5040675;28;20041;-72
2022/09/17 06:00:41;;;;;;;1.35;1.05;;;8.00;46.50;;;;;;5035099;28;20140;-77
2022/09/17 06:03:12;;;;;;;1.88;1.17;;;8.00;46.50;;;;;;5045226;28;20028;-74
2022/09/17 06:05:39;;;;;;;2.17;1.52;;;8.00;46.70;;;;;;5032360;28;20025;-74
2022/09/17 06:08:06;;;;;;;2.13;1.35;;;8.00;46.70;;;;;;5041362;28;20044;-74
2022/09/17 06:10:37;;;;;;;2.33;1.15;;;8.10;46.90;;;;;;5047955;28;20168;-74
2022/09/17 06:13:03;;;;;;;1.95;1.10;;;8.10;47.00;;;;;;5047879;28;20086;-74
2022/09/17 06:15:30;;;;;;;3.03;1.45;;;8.00;46.90;;;;;;5039711;28;20281;-80
2022/09/17 06:17:56;;;;;;;1.67;1.20;;;8.00;47.00;;;;;;5043054;28;20033;-79
2022/09/17 06:20:22;;;;;;;1.73;1.20;;;8.00;47.30;;;;;;5047074;28;20091;-75
2022/09/17 06:22:54;;;;;;;2.13;1.20;;;8.10;48.10;;;;;;5049973;28;20033;-75
2022/09/17 06:25:20;;;;;;;4.10;1.08;;;8.30;48.80;;;;;;5048585;28;20045;-74
2022/09/17 06:27:46;;;;;;;2.40;1.30;;;8.40;48.90;;;;;;5047467;28;20166;-77
2022/09/17 06:30:12;;;;;;;1.52;1.05;;;8.40;48.70;;;;;;5029635;28;20510;-75
2022/09/17 06:32:39;;;;;;;3.55;1.30;;;8.50;48.90;;;;;;5046029;28;20029;-74
2022/09/17 06:35:07;;;;;;;5.10;1.75;;;8.60;49.10;;;;;;5046934;28;20295;-76
2022/09/17 06:37:35;;;;;;;2.22;1.55;;;8.60;49.20;;;;;;5038720;28;20492;-73
2022/09/17 06:40:01;;;;;;;2.90;2.17;;;8.60;49.30;;;;;;5045863;28;20013;-73
2022/09/17 06:42:27;;;;;;;3.90;1.35;;;8.70;49.60;;;;;;5061855;28;20016;-74
2022/09/17 06:44:54;;;;;;;2.95;1.27;;;8.70;49.70;;;;;;5067327;28;20529;-72
2022/09/17 06:47:23;;;;;;;2.08;0.93;;;8.70;50.20;;;;;;5051684;28;20100;-74
2022/09/17 06:49:49;;;;;;;4.30;1.17;;;8.70;49.70;;;;;;5059079;28;20059;-74
2022/09/17 06:52:15;;;;;;;1.70;0.90;;;8.70;49.60;;;;;;5060200;28;20029;-75
2022/09/17 06:54:41;;;;;;;0.73;0.70;;;8.70;49.70;;;;;;5042131;28;20045;-76
2022/09/17 06:57:06;;;;;;;2.75;1.23;;;8.70;49.70;;;;;;5049505;28;20037;-76
2022/09/17 06:59:32;;;;;;;0.93;0.70;;;8.70;49.70;;;;;;5041825;28;20072;-76
2022/09/17 07:01:58;;;;;;;1.85;1.60;;;8.70;49.70;;;;;;5053708;28;20198;-75
2022/09/17 07:04:26;;;;;;;1.23;1.02;;;8.70;49.70;;;;;;5055757;28;20025;-75
2022/09/17 07:06:51;;;;;;;1.73;0.85;;;8.70;49.70;;;;;;5044464;28;20017;-73
2022/09/17 07:09:18;;;;;;;2.05;0.75;;;8.70;49.60;;;;;;5046967;28;20048;-72
2022/09/17 07:11:44;;;;;;;1.23;1.00;;;8.80;49.80;;;;;;5036927;28;20025;-74
2022/09/17 07:14:10;;;;;;;2.42;0.90;;;8.80;49.80;;;;;;5047596;28;20045;-73
2022/09/17 07:16:38;;;;;;;1.50;0.82;;;8.80;49.70;;;;;;5048371;28;20025;-75
2022/09/17 07:19:04;;;;;;;2.35;0.80;;;8.90;49.90;;;;;;5010936;28;20099;-75
2022/09/17 07:21:30;;;;;;;2.35;0.90;;;8.90;49.80;;;;;;5050794;28;20387;-76
2022/09/17 07:23:56;;;;;;;1.60;0.85;;;9.00;50.50;;;;;;5056397;28;20041;-74
2022/09/17 07:26:22;;;;;;;1.45;0.80;;;8.90;49.70;;;;;;5035749;28;20041;-74
2022/09/17 07:28:48;;;;;;;2.03;0.93;;;9.00;49.90;;;;;;5035767;28;20020;-73
2022/09/17 07:31:15;;;;;;;1.13;0.80;;;9.00;49.80;;;;;;5047534;28;20029;-73
2022/09/17 07:33:41;;;;;;;1.58;0.73;;;9.10;50.00;;;;;;5037940;28;20095;-74
2022/09/17 07:36:11;;;;;;;1.95;1.20;;;9.10;49.90;;;;;;5048158;28;20041;-73
2022/09/17 07:38:39;;;;;;;2.83;1.10;;;9.20;50.10;;;;;;5054408;28;20091;-73
2022/09/17 07:41:12;;;;;;;2.92;0.82;;;9.30;50.30;;;;;;5047196;28;20036;-74
2022/09/17 07:43:39;;;;;;;0.60;0.50;;;9.30;50.20;;;;;;5045385;28;20044;-74
2022/09/17 07:46:07;;;;;;;2.00;1.00;;;9.40;50.40;;;;;;5047691;28;20029;-73
2022/09/17 07:48:33;;;;;;;2.67;1.05;;;9.40;50.30;;;;;;5044796;28;20037;-74
2022/09/17 07:50:59;;;;;;;1.33;0.90;;;9.50;50.50;;;;;;5061075;28;20094;-73
2022/09/17 07:53:26;;;;;;;2.83;0.90;;;9.60;50.70;;;;;;5048327;28;20456;-73
2022/09/17 07:55:57;;;;;;;1.15;0.80;;;9.70;50.80;;;;;;5045047;28;20148;-73
2022/09/17 07:58:32;;;;;;;1.98;1.25;;;9.70;50.80;;;;;;5043643;28;20029;-72
2022/09/17 08:01:03;;;;;;;0.82;0.73;;;9.80;50.90;;;;;;5031616;28;20045;-74
2022/09/17 08:03:30;;;;;;;2.45;1.02;;;9.90;51.10;;;;;;5052345;28;20028;-73
2022/09/17 08:06:05;;;;;;;3.45;1.02;;;10.00;51.20;;;;;;5054420;28;20037;-74
2022/09/17 08:08:34;;;;;;;3.83;1.10;;;10.10;51.50;;;;;;5065109;28;20021;-74
2022/09/17 08:11:09;;;;;;;1.25;0.95;;;10.10;51.30;;;;;;5049718;28;20033;-72
2022/09/17 08:13:35;;;;;;;2.08;1.00;;;10.20;51.60;;;;;;5047752;28;20037;-73
2022/09/17 08:16:06;;;;;;;2.05;1.25;;;10.30;51.70;;;;;;5044886;28;20025;-75
2022/09/17 08:18:34;;;;;;;2.40;1.27;;;10.30;51.70;;;;;;5053891;28;20191;-78
2022/09/17 08:21:02;;;;;;;8.75;1.02;;;10.40;51.90;;;;;;5048059;28;20484;-77
2022/09/17 08:23:34;;;;;;;6.68;1.10;;;10.50;52.20;;;;;;5051365;28;20043;-75
2022/09/17 08:26:01;;;;;;;2.42;0.90;;;10.60;53.20;;;;;;5052493;28;20029;-73
2022/09/17 08:28:30;;;;;;;2.83;1.10;;;10.80;53.70;;;;;;5047884;28;20033;-74
2022/09/17 08:31:05;;;;;;;6.03;2.38;;;11.00;54.20;;;;;;5049683;28;20098;-74
2022/09/17 08:33:33;;;;;;;4.15;1.75;;;11.10;54.40;;;;;;5048829;28;20408;-72
2022/09/17 08:35:59;;;;;;;1.45;1.00;;;11.20;54.40;;;;;;5049920;28;20445;-75
2022/09/17 08:38:30;;;;;;;2.63;1.00;;;11.30;54.50;;;;;;5049183;28;20482;-74
2022/09/17 08:41:01;;;;;;;3.10;1.52;;;11.40;54.70;;;;;;5043008;28;20491;-73
2022/09/17 08:43:30;;;;;;;3.47;1.20;;;11.50;54.80;;;;;;5053166;28;20021;-73
2022/09/17 08:45:57;;;;;;;4.05;1.25;;;11.50;54.80;;;;;;5050791;28;20040;-74
2022/09/17 08:48:32;;;;;;;2.35;1.00;;;11.50;54.70;;;;;;5041906;28;20422;-76
2022/09/17 08:50:58;;;;;;;3.85;1.40;;;11.60;54.90;;;;;;5049033;28;20036;-75
2022/09/17 08:53:40;;;;;;;3.38;1.02;;;11.70;54.90;;;;;;5050619;28;20036;-74
2022/09/17 08:56:14;;;;;;;2.67;1.23;;;11.80;55.10;;;;;;5040873;28;20047;-72
2022/09/17 08:59:02;;;;;;;3.28;1.02;;;11.80;54.90;;;;;;5053465;28;20032;-73
2022/09/17 09:01:41;;;;;;;3.15;0.75;;;11.90;55.00;;;;;;5050648;28;20021;-73
2022/09/17 09:04:18;;;;;;;3.17;1.30;;;12.00;55.00;;;;;;5050399;28;20036;-74
2022/09/17 09:06:57;;;;;;;2.13;0.80;;;12.10;55.10;;;;;;5052528;28;20215;-73
2022/09/17 09:09:27;;;;;;;3.65;1.08;;;12.10;54.90;;;;;;5047723;28;20129;-74
2022/09/17 09:12:06;;;;;;;5.20;1.10;;;12.20;55.10;;;;;;5052314;28;20025;-74
2022/09/17 09:14:42;;;;;;;2.42;1.70;;;12.30;55.10;;;;;;5048520;28;20047;-73
2022/09/17 09:17:09;;;;;;;4.68;1.35;;;12.30;55.00;;;;;;5051331;28;20050;-73
2022/09/17 09:19:43;;;;;;;1.70;1.02;;;12.40;55.00;;;;;;5048819;28;20033;-74
2022/09/17 09:22:39;;;;;;;2.42;0.90;;;12.50;55.10;;;;;;5039745;28;20301;-73
2022/09/17 09:25:17;;;;;;;4.43;1.00;;;12.60;55.20;;;;;;5047896;28;20515;-72
2022/09/17 09:28:01;;;;;;;2.92;0.70;;;12.60;55.00;;;;;;5054209;28;20024;-74
2022/09/17 09:30:53;;;;;;;1.48;0.60;;;12.70;55.00;;;;;;5042261;28;20044;-75
2022/09/17 09:33:44;;;;;;;2.92;0.70;;;12.80;55.00;;;;;;5046835;28;20539;-75
2022/09/17 09:36:14;;;;;;;3.25;0.73;;;12.80;54.80;;;;;;5042166;28;20058;-74
2022/09/17 09:38:48;;;;;;;4.68;1.50;;;12.90;54.80;;;;;;5039057;28;20037;-74
2022/09/17 09:41:43;;;;;;;2.95;0.80;;;13.00;54.90;;;;;;5050207;28;20036;-76
2022/09/17 09:44:11;;;;;;;2.38;1.10;;;13.00;54.70;;;;;;5045985;28;20068;-75
2022/09/17 09:47:19;;;;;;;2.95;0.75;;;13.10;54.70;;;;;;5037642;28;20052;-75
2022/09/17 09:50:23;;;;;;;1.77;0.63;;;13.20;54.80;;;;;;5042238;28;20049;-73
2022/09/17 09:53:12;;;;;;;2.63;0.80;;;13.30;54.70;;;;;;5049223;28;20382;-74
2022/09/17 09:55:38;;;;;;;3.92;0.70;;;13.40;54.60;;;;;;5032023;28;20716;-74
2022/09/17 09:58:20;;;;;;;4.60;0.85;;;13.50;54.60;;;;;;5040953;28;20166;-75
2022/09/17 10:00:47;;;;;;;2.42;0.63;;;13.60;54.60;;;;;;5045963;28;20043;-73
2022/09/17 10:03:20;;;;;;;4.80;1.02;;;13.70;54.50;;;;;;5049791;28;20029;-74
2022/09/17 10:05:59;;;;;;;2.60;1.20;;;13.80;54.50;;;;;;5045043;28;20032;-73
2022/09/17 10:08:30;;;;;;;2.10;0.60;;;13.90;54.40;;;;;;5031398;28;20041;-74
2022/09/17 10:11:01;;;;;;;4.00;0.70;;;14.10;54.30;;;;;;5039712;28;20165;-74
2022/09/17 10:13:30;;;;;;;2.42;0.55;;;14.30;54.30;;;;;;5031130;28;20049;-73
2022/09/17 10:16:19;;;;;;;3.63;0.50;;;14.50;54.20;;;;;;5025479;28;20390;-75
2022/09/17 10:18:47;;;;;;;1.42;0.50;;;14.70;54.10;;;;;;5040745;28;20475;-74
2022/09/17 10:21:42;;;;;;;3.08;0.82;;;14.90;54.00;;;;;;5029740;28;20020;-74
2022/09/17 10:24:27;;;;;;;10.13;1.65;;;15.00;53.70;;;;;;5048508;28;20098;-76
2022/09/17 10:27:15;;;;;;;5.00;1.02;;;15.20;53.70;;;;;;5042909;28;20022;-74
2022/09/17 10:29:48;;;;;;;5.43;0.50;;;15.30;53.60;;;;;;5057401;28;20345;-78
2022/09/17 10:32:19;;;;;;;5.17;0.73;;;15.40;53.70;;;;;;5052984;28;20021;-76
2022/09/17 10:35:03;;;;;;;1.23;0.50;;;15.50;53.90;;;;;;5037777;28;20055;-76
2022/09/17 10:37:40;;;;;;;4.07;0.93;;;15.70;54.30;;;;;;5046021;28;20108;-76
2022/09/17 10:40:18;;;;;;;1.58;0.50;;;15.90;54.30;;;;;;5040566;28;20033;-75
2022/09/17 10:42:49;;;;;;;4.13;1.35;;;16.10;54.40;;;;;;5044742;28;20037;-75
2022/09/17 10:45:30;;;;;;;0.93;0.30;;;16.30;54.50;;;;;;5063814;28;20051;-76
2022/09/17 10:47:58;;;;;;;2.90;0.68;;;16.50;54.50;;;;;;5034284;28;20044;-76
2022/09/17 10:50:31;;;;;;;2.72;0.60;;;16.70;54.30;;;;;;5044867;28;20075;-76
2022/09/17 10:53:01;;;;;;;3.95;0.35;;;16.80;54.10;;;;;;5050519;28;20443;-76
2022/09/17 10:55:33;;;;;;;2.30;0.57;;;17.00;54.10;;;;;;5030151;28;20447;-77
2022/09/17 10:58:08;;;;;;;1.23;0.73;;;17.10;53.90;;;;;;5032582;28;20025;-77
2022/09/17 11:00:51;;;;;;;2.80;0.85;;;17.20;53.80;;;;;;5043550;28;20036;-76
2022/09/17 11:03:26;;;;;;;2.42;0.68;;;17.30;53.50;;;;;;5042756;28;20028;-75
2022/09/17 11:06:10;;;;;;;1.00;0.70;;;17.40;53.40;;;;;;5039895;28;20037;-75
2022/09/17 11:08:56;;;;;;;1.95;0.50;;;17.50;53.00;;;;;;5043235;28;20040;-75
2022/09/17 11:11:35;;;;;;;1.40;0.47;;;17.60;53.00;;;;;;5049311;28;20538;-76
2022/09/17 11:14:37;;;;;;;1.80;0.45;;;17.70;52.80;;;;;;5039162;28;20199;-77
2022/09/17 11:17:22;;;;;;;1.92;0.40;;;17.80;52.60;;;;;;5032075;28;20055;-76
2022/09/17 11:20:07;;;;;;;1.45;0.40;;;18.00;52.50;;;;;;5041176;28;20249;-77
2022/09/17 11:22:56;;;;;;;1.45;0.45;;;18.10;52.20;;;;;;5028138;28;20128;-77
2022/09/17 11:25:51;;;;;;;0.47;0.30;;;18.20;52.00;;;;;;5036329;28;20036;-75
2022/09/17 11:28:39;;;;;;;3.20;0.47;;;18.20;51.70;;;;;;5043832;28;20025;-77
2022/09/17 11:31:32;;;;;;;1.45;0.45;;;18.30;51.50;;;;;;5052064;28;20022;-77
2022/09/17 11:34:10;;;;;;;;;;;18.40;51.20;;;;;;5043788;28;20537;-78
2022/09/17 11:36:57;;;;;;;3.42;0.85;;;18.50;51.50;;;;;;5043391;28;19970;-75
2022/09/17 11:39:50;;;;;;;1.55;0.55;;;18.50;51.20;;;;;;5041358;28;20021;-76
2022/09/17 11:42:24;;;;;;;3.90;0.60;;;18.50;51.00;;;;;;5029642;28;20040;-76
2022/09/17 11:45:01;;;;;;;1.85;0.73;;;18.60;51.10;;;;;;5042716;28;20033;-75
2022/09/17 11:47:34;;;;;;;4.30;1.40;;;18.60;50.80;;;;;;5052773;28;20412;-73
2022/09/17 11:50:35;;;;;;;1.85;0.60;;;18.70;50.70;;;;;;5045456;28;20045;-75
2022/09/17 11:53:23;;;;;;;1.10;0.80;;;18.70;50.40;;;;;;5043737;28;20172;-74
2022/09/17 11:55:56;;;;;;;1.90;0.40;;;18.90;50.40;;;;;;5044625;28;20031;-73
2022/09/17 11:58:40;;;;;;;2.65;0.32;;;18.90;50.10;;;;;;5039754;28;20033;-74
2022/09/17 12:01:31;;;;;;;1.98;0.75;;;19.00;50.00;;;;;;5045483;28;20043;-74
2022/09/17 12:04:29;;;;;;;5.00;0.93;;;19.00;49.90;;;;;;5048679;28;20033;-73
2022/09/17 12:07:24;;;;;;;1.55;0.50;;;19.10;49.70;;;;;;5048971;28;20103;-73
2022/09/17 12:10:01;;;;;;;1.75;0.68;;;19.10;49.50;;;;;;5047109;28;20082;-74
2022/09/17 12:12:29;;;;;;;1.65;0.45;;;19.10;49.40;;;;;;5049154;28;20025;-72
2022/09/17 12:15:06;;;;;;;1.88;1.13;;;19.10;49.30;;;;;;5051197;28;20047;-74
2022/09/17 12:17:53;;;;;;;2.65;0.60;;;19.20;49.00;;;;;;5045541;28;20280;-75
2022/09/17 12:20:32;;;;;;;1.95;0.63;;;19.20;48.80;;;;;;5050009;28;20025;-75
2022/09/17 12:23:06;;;;;;;2.50;0.85;;;19.20;48.80;;;;;;5049835;28;20036;-75
2022/09/17 12:25:43;;;;;;;2.75;0.52;;;19.40;49.10;;;;;;5048896;28;20114;-74
2022/09/17 12:28:26;;;;;;;4.43;1.08;;;19.40;48.80;;;;;;5050108;28;20033;-74
2022/09/17 12:31:11;;;;;;;1.67;0.57;;;19.40;48.40;;;;;;5047273;28;20051;-73
2022/09/17 12:33:58;;;;;;;1.20;0.60;;;19.50;48.50;;;;;;5046545;28;20037;-74
2022/09/17 12:36:29;;;;;;;1.98;0.57;;;19.50;48.40;;;;;;5045103;28;20025;-74
2022/09/17 12:39:10;;;;;;;0.65;0.30;;;19.60;48.40;;;;;;5051159;28;20506;-74
2022/09/17 12:42:15;;;;;;;2.83;0.40;;;19.70;48.20;;;;;;5039661;28;20025;-74
2022/09/17 12:44:50;;;;;;;1.73;0.30;;;19.80;48.10;;;;;;5006213;28;20045;-74
2022/09/17 12:48:03;;;;;;;1.40;0.43;;;19.80;48.00;;;;;;5046707;28;20493;-74
2022/09/17 12:50:34;;;;;;;2.83;0.45;;;19.80;47.40;;;;;;5048117;28;20053;-74
2022/09/17 12:53:33;;;;;;;0.90;0.28;;;19.80;47.60;;;;;;5048579;28;20041;-75
2022/09/17 12:56:08;;;;;;;1.90;0.43;;;19.90;47.50;;;;;;5047948;28;20025;-75
2022/09/17 12:58:49;;;;;;;2.05;0.60;;;20.00;47.80;;;;;;5044384;28;20275;-75
2022/09/17 13:01:45;;;;;;;1.10;0.50;;;20.10;47.70;;;;;;5041507;28;20101;-75
2022/09/17 13:04:30;;;;;;;4.03;0.70;;;20.20;47.30;;;;;;5039605;28;20029;-73
2022/09/17 13:07:12;;;;;;;1.85;0.70;;;20.40;47.60;;;;;;5047541;28;20058;-73
2022/09/17 13:10:06;;;;;;;1.23;0.50;;;20.40;46.90;;;;;;5044678;28;20029;-74
2022/09/17 13:12:59;;;;;;;1.98;0.88;;;20.40;46.30;;;;;;5041869;28;20271;-74
2022/09/17 13:16:12;;;;;;;3.95;0.68;;;20.30;45.70;;;;;;5049933;28;20033;-75
2022/09/17 13:18:53;;;;;;;4.72;0.98;;;20.30;45.50;;;;;;5046692;28;20098;-75
2022/09/17 13:21:24;;;;;;;5.03;0.73;;;20.20;45.50;;;;;;5053041;28;20033;-76
2022/09/17 13:23:54;;;;;;;3.10;1.17;;;20.30;45.80;;;;;;5053861;28;20120;-77